Time;durP1;ratioP1;P1;durP2;ratioP2;P2;SDS_P1;SDS_P2;PMS_P1;PMS_P2;Temp;Humidity;BMP_temperature;BMP_pressure;BME280_temperature;BME280_humidity;BME280_pressure;Samples;Min_cycle;Max_cycle;Signal;HPM_P1;HPM_P2
2021/03/06 00:05:34;;;;;;;;;;;;;;;;;;;;;
2021/03/06 00:11:56;;;;;;;1999.90;999.90;;;0.80;99.90;;;;;;6047295;23;20027;-96
2021/03/06 00:15:13;;;;;;;1999.90;999.90;;;0.70;99.90;;;;;;6054898;23;20023;-96
2021/03/06 00:18:24;;;;;;;1999.90;999.90;;;0.70;99.90;;;;;;6053738;23;20027;-95
2021/03/06 00:24:31;;;;;;;;;;;;;;;;;;;;;
2021/03/06 00:31:28;;;;;;;1999.90;999.90;;;0.60;99.90;;;;;;6116399;23;20026;-96
2021/03/06 00:34:49;;;;;;;1999.90;999.90;;;0.60;99.90;;;;;;6121005;23;20026;-96
2021/03/06 01:04:06;;;;;;;1999.90;999.90;;;0.30;99.90;;;;;;6158792;23;20040;-96
2021/03/06 02:16:54;;;;;;;1999.90;999.90;;;-0.20;99.90;;;;;;6139666;23;20026;-95
2021/03/06 02:49:02;;;;;;;1999.90;999.90;;;-0.40;99.90;;;;;;5917253;24;20029;-95
2021/03/06 02:52:20;;;;;;;1999.90;999.90;;;-0.40;99.90;;;;;;5917540;24;20029;-95
2021/03/06 02:55:31;;;;;;;1999.90;999.90;;;-0.40;99.90;;;;;;5917090;24;20029;-95
2021/03/06 03:09:59;;;;;;;1999.90;999.90;;;-0.50;99.90;;;;;;5924230;24;20021;-96
2021/03/06 03:39:43;;;;;;;1999.90;999.90;;;-0.70;99.90;;;;;;5947646;24;20084;-96
2021/03/06 04:24:32;;;;;;;1999.90;999.90;;;-0.90;99.90;;;;;;6201828;23;20079;-94
2021/03/06 05:35:23;;;;;;;1999.90;999.90;;;-0.80;99.90;;;;;;6153192;23;20094;-94
2021/03/06 05:37:51;;;;;;;1999.90;999.90;;;-0.80;99.90;;;;;;6217200;23;20021;-93
2021/03/06 05:40:23;;;;;;;1999.90;999.90;;;-0.80;99.90;;;;;;6216915;23;20100;-93
2021/03/06 05:43:58;;;;;;;1999.90;999.90;;;-0.80;99.90;;;;;;6216512;23;20025;-94
2021/03/06 05:46:26;;;;;;;1999.90;999.90;;;-0.80;99.90;;;;;;6193905;23;20052;-95
2021/03/06 05:48:58;;;;;;;1999.90;999.90;;;-0.90;99.90;;;;;;6216927;23;20092;-94
2021/03/06 05:51:34;;;;;;;1999.90;999.90;;;-0.90;99.90;;;;;;6217432;23;20336;-95
2021/03/06 05:54:32;;;;;;;1999.90;999.90;;;-0.90;99.90;;;;;;6217164;23;20021;-93
2021/03/06 06:00:04;;;;;;;1999.90;999.90;;;-0.90;99.90;;;;;;6180606;23;20095;-94
2021/03/06 06:12:15;;;;;;;1999.90;999.90;;;-1.00;99.90;;;;;;6217836;23;20027;-94
2021/03/06 06:14:49;;;;;;;1999.90;999.90;;;-1.00;99.90;;;;;;6217118;23;20016;-94
2021/03/06 06:17:16;;;;;;;1999.90;999.90;;;-1.10;99.90;;;;;;6216568;23;20020;-94
2021/03/06 06:20:45;;;;;;;1999.90;999.90;;;-1.00;99.90;;;;;;6218000;23;20091;-95
2021/03/06 06:27:10;;;;;;;1999.90;999.90;;;-1.00;99.90;;;;;;6004076;23;20023;-94
2021/03/06 06:33:44;;;;;;;1999.90;999.90;;;-1.10;99.90;;;;;;6041365;23;20023;-94
2021/03/06 06:37:03;;;;;;;1999.90;999.90;;;-1.10;99.90;;;;;;6053281;23;20103;-94
2021/03/06 06:40:27;;;;;;;1999.90;999.90;;;-1.10;99.90;;;;;;5996207;23;20076;-94
2021/03/06 06:48:05;;;;;;;1999.90;999.90;;;-1.10;99.90;;;;;;6097836;23;20018;-95
2021/03/06 06:50:52;;;;;;;1999.90;999.90;;;-1.10;99.90;;;;;;6099332;23;20014;-94
2021/03/06 06:54:26;;;;;;;;;;;;;;;;;;;;;
2021/03/06 06:57:17;;;;;;;1999.90;999.90;;;-1.10;99.90;;;;;;6218413;23;20017;-93
2021/03/06 07:00:00;;;;;;;1999.90;999.90;;;-1.10;99.90;;;;;;6218657;23;20096;-94
2021/03/06 07:03:19;;;;;;;1999.90;999.90;;;-1.00;99.90;;;;;;6220113;23;20096;-94
2021/03/06 07:10:03;;;;;;;1999.90;999.90;;;-1.00;99.90;;;;;;6097852;23;20029;-95
2021/03/06 07:13:13;;;;;;;1999.90;999.90;;;-1.00;99.90;;;;;;6083751;23;20033;-94
2021/03/06 07:19:49;;;;;;;1999.90;999.90;;;-1.00;99.90;;;;;;6011644;23;20029;-94
2021/03/06 07:23:23;;;;;;;;;;;;;;;;;;;;;
2021/03/06 07:26:36;;;;;;;1999.90;999.90;;;-0.90;99.90;;;;;;5983457;24;20032;-93
2021/03/06 07:40:21;;;;;;;1999.90;999.90;;;-0.80;99.90;;;;;;5887320;24;20084;-95
2021/03/06 07:50:40;;;;;;;1999.90;999.90;;;-0.50;99.90;;;;;;6005612;23;20030;-94
2021/03/06 07:56:14;;;;;;;1999.90;999.90;;;-0.20;99.90;;;;;;6066153;23;20127;-93
2021/03/06 07:58:54;;;;;;;1999.90;999.90;;;-0.10;99.90;;;;;;6184714;23;20028;-94
2021/03/06 08:01:43;;;;;;;1999.90;999.90;;;0.00;99.90;;;;;;6217899;23;20016;-92
2021/03/06 08:04:40;;;;;;;1999.90;999.90;;;0.20;99.90;;;;;;6218532;23;20099;-92
2021/03/06 08:07:24;;;;;;;1999.90;999.90;;;0.30;99.90;;;;;;6218420;23;20436;-93
2021/03/06 08:10:22;;;;;;;1999.90;999.90;;;0.50;99.90;;;;;;6218132;23;20023;-93
2021/03/06 08:13:57;;;;;;;1999.90;999.90;;;0.70;99.90;;;;;;6195918;23;20456;-93
2021/03/06 08:16:55;;;;;;;1999.90;999.90;;;0.90;99.90;;;;;;6218131;23;20017;-93
2021/03/06 08:22:46;;;;;;;1999.90;999.90;;;1.20;99.90;;;;;;6218265;23;20455;-93
2021/03/06 08:25:23;;;;;;;1999.90;999.90;;;1.40;99.90;;;;;;6218081;23;20023;-93
2021/03/06 08:28:34;;;;;;;1999.90;999.90;;;1.50;99.90;;;;;;6218181;23;20025;-95
2021/03/06 08:31:54;;;;;;;1999.90;999.90;;;1.70;99.90;;;;;;6217685;23;20089;-92
2021/03/06 08:34:48;;;;;;;1999.90;999.90;;;1.90;99.90;;;;;;6218176;23;20282;-93
2021/03/06 08:37:59;;;;;;;1999.90;999.90;;;2.10;99.90;;;;;;6218774;23;20021;-92
2021/03/06 08:40:56;;;;;;;1999.90;999.90;;;2.30;99.90;;;;;;6215099;23;20083;-93
2021/03/06 08:43:39;;;;;;;1999.90;999.90;;;2.40;99.90;;;;;;6218013;23;20107;-92
2021/03/06 08:46:31;;;;;;;1999.90;999.90;;;2.60;99.90;;;;;;6216049;23;20103;-93
2021/03/06 08:52:25;;;;;;;1999.90;999.90;;;2.80;99.90;;;;;;6217593;23;20070;-92
2021/03/06 08:55:37;;;;;;;1999.90;999.90;;;3.00;99.90;;;;;;6219077;23;20020;-94
2021/03/06 09:05:21;;;;;;;1999.90;999.90;;;3.30;99.90;;;;;;6177918;23;20020;-93
2021/03/06 09:08:14;;;;;;;1999.90;999.90;;;3.40;99.90;;;;;;6218131;23;20020;-94
2021/03/06 09:11:24;;;;;;;1999.90;999.90;;;3.40;99.90;;;;;;6207278;23;20021;-93
2021/03/06 09:14:34;;;;;;;1999.90;999.90;;;3.50;99.90;;;;;;6216220;23;20043;-94
2021/03/06 09:17:14;;;;;;;1999.90;999.90;;;3.60;99.90;;;;;;6217458;23;20025;-93
2021/03/06 09:20:17;;;;;;;1999.90;999.90;;;3.80;99.90;;;;;;6217579;23;20455;-95
2021/03/06 09:23:22;;;;;;;1999.90;999.90;;;3.90;99.90;;;;;;6217285;23;20017;-93
2021/03/06 09:33:41;;;;;;;1999.90;999.90;;;4.30;99.90;;;;;;6213137;23;20020;-92
2021/03/06 09:47:37;;;;;;;1999.90;999.90;;;4.70;99.90;;;;;;5954602;24;20358;-94
2021/03/06 10:58:14;;;;;;;1999.90;999.90;;;6.10;99.90;;;;;;5784986;24;20023;-95
2021/03/06 13:03:29;;;;;;;1999.90;999.90;;;7.20;95.50;;;;;;6245694;23;20075;-96
2021/03/06 13:53:37;;;;;;;;;;;;;;;;;;;;;
2021/03/06 13:56:30;;;;;;;1999.90;999.90;;;7.20;94.30;;;;;;5926136;24;20084;-96
2021/03/06 13:59:36;;;;;;;;;;;7.20;94.00;;;;;;6000546;23;20035;-96
2021/03/06 14:06:49;;;;;;;1999.90;999.90;;;7.20;94.20;;;;;;6107685;23;20025;-96
2021/03/06 14:27:31;;;;;;;1999.90;999.90;;;7.60;93.50;;;;;;6159881;23;20025;-96
2021/03/06 14:34:43;;;;;;;1999.90;999.90;;;7.70;93.90;;;;;;6110318;23;20141;-95
2021/03/06 14:57:42;;;;;;;;;;;;;;;;;;;;;
2021/03/06 15:01:14;;;;;;;1999.90;999.90;;;10.60;92.70;;;;;;5961886;24;20035;-95
2021/03/06 15:03:47;;;;;;;1999.90;999.90;;;11.10;93.50;;;;;;6066127;23;20027;-96
2021/03/06 15:06:37;;;;;;;1999.90;999.90;;;11.60;91.90;;;;;;6101323;23;20022;-96
2021/03/06 15:09:22;;;;;;;1999.90;999.90;;;12.00;90.60;;;;;;6101317;23;20078;-96
2021/03/06 15:11:53;;;;;;;1999.90;999.90;;;12.10;87.50;;;;;;6177924;23;20048;-94
2021/03/06 15:14:33;;;;;;;1999.90;999.90;;;12.30;89.20;;;;;;6219983;23;20032;-94
2021/03/06 15:17:12;;;;;;;1999.90;999.90;;;12.50;88.60;;;;;;6219167;23;20035;-94
2021/03/06 15:23:08;;;;;;;1999.90;999.90;;;13.10;82.60;;;;;;6238279;23;20099;-94
2021/03/06 15:26:02;;;;;;;1999.90;999.90;;;13.30;79.60;;;;;;6253205;23;20050;-94
2021/03/06 15:28:55;;;;;;;1999.90;999.90;;;13.40;77.10;;;;;;6253495;23;20024;-94
2021/03/06 15:31:35;;;;;;;1999.90;999.90;;;13.50;78.40;;;;;;6247773;23;20020;-95
2021/03/06 15:34:50;;;;;;;1999.90;999.90;;;13.70;73.40;;;;;;6254873;23;20024;-96
2021/03/06 15:37:47;;;;;;;;;;;;;;;;;;;;;
2021/03/06 15:40:40;;;;;;;1999.90;999.90;;;14.10;70.90;;;;;;6255867;23;20031;-96
2021/03/06 15:46:17;;;;;;;1999.90;999.90;;;14.00;69.50;;;;;;6164636;23;20096;-96
2021/03/06 15:49:33;;;;;;;1999.90;999.90;;;14.00;69.20;;;;;;6250141;23;20032;-96
2021/03/06 15:52:13;;;;;;;1999.90;999.90;;;14.10;68.20;;;;;;6265452;23;20251;-94
2021/03/06 15:55:04;;;;;;;1999.90;999.90;;;14.20;68.00;;;;;;6262100;23;20024;-95
2021/03/06 15:58:13;;;;;;;1999.90;999.90;;;14.30;66.10;;;;;;6264542;22;20020;-96
2021/03/06 16:08:35;;;;;;;;;;;;;;;;;;;;;
2021/03/06 16:26:34;;;;;;;1999.90;999.90;;;13.00;62.30;;;;;;5862414;24;20094;-96
2021/03/06 16:46:33;;;;;;;1999.90;999.90;;;9.70;70.10;;;;;;5855784;24;20111;-96
2021/03/06 16:50:09;;;;;;;;;;;;;;;;;;;;;
2021/03/06 16:53:01;;;;;;;1999.90;999.90;;;9.10;71.60;;;;;;5886460;24;20520;-96
2021/03/06 17:22:19;;;;;;;1999.90;999.90;;;7.40;84.70;;;;;;6165791;23;20082;-96
2021/03/06 17:29:07;;;;;;;;;;;;;;;;;;;;;
2021/03/06 17:35:31;;;;;;;1999.90;999.90;;;6.80;90.10;;;;;;6236498;23;20024;-96
2021/03/06 17:38:33;;;;;;;1999.90;999.90;;;6.60;91.40;;;;;;6260021;23;20024;-93
2021/03/06 17:41:15;;;;;;;1999.90;999.90;;;6.50;91.90;;;;;;6247723;23;20031;-93
2021/03/06 17:47:14;;;;;;;1999.90;999.90;;;6.40;93.60;;;;;;6221145;23;20450;-94
2021/03/06 17:49:42;;;;;;;1999.90;999.90;;;6.20;94.10;;;;;;6253488;23;20431;-93
2021/03/06 17:52:13;;;;;;;1999.90;999.90;;;6.20;95.30;;;;;;6250050;23;20016;-93
2021/03/06 17:54:49;;;;;;;1999.90;999.90;;;6.10;95.30;;;;;;6248064;23;20074;-95
2021/03/06 18:13:48;;;;;;;1999.90;999.90;;;5.50;99.10;;;;;;6181478;22;20039;-94
2021/03/06 18:16:29;;;;;;;1999.90;999.90;;;5.40;99.50;;;;;;6250532;23;20103;-93
2021/03/06 18:26:29;;;;;;;1999.90;999.90;;;5.20;99.90;;;;;;6200944;23;20060;-93
2021/03/06 18:29:00;;;;;;;1999.90;999.90;;;5.20;99.90;;;;;;6185761;23;20032;-93
2021/03/06 18:31:32;;;;;;;1999.90;999.90;;;5.20;99.90;;;;;;6185997;23;20548;-93
2021/03/06 18:34:03;;;;;;;1999.90;999.90;;;5.10;99.90;;;;;;6188273;23;20084;-92
2021/03/06 18:36:30;;;;;;;1999.90;999.90;;;5.10;99.90;;;;;;6187573;23;20029;-94
2021/03/06 18:38:58;;;;;;;1999.90;999.90;;;5.00;99.90;;;;;;6192649;23;20113;-94
2021/03/06 18:41:41;;;;;;;1999.90;999.90;;;5.00;99.90;;;;;;6254378;23;20099;-94
2021/03/06 18:44:09;;;;;;;1999.90;999.90;;;4.90;99.90;;;;;;6250081;23;20024;-94
2021/03/06 18:46:37;;;;;;;1999.90;999.90;;;4.90;99.90;;;;;;6249534;23;20024;-95
2021/03/06 18:49:05;;;;;;;1999.90;999.90;;;4.80;99.90;;;;;;6249881;23;20037;-95
2021/03/06 18:51:32;;;;;;;1999.90;999.90;;;4.80;99.90;;;;;;6250411;23;20016;-95
2021/03/06 18:54:00;;;;;;;1999.90;999.90;;;4.70;99.90;;;;;;6250276;23;20024;-94
2021/03/06 18:56:31;;;;;;;1999.90;999.90;;;4.70;99.90;;;;;;6249293;23;20032;-93
2021/03/06 18:59:04;;;;;;;1999.90;999.90;;;4.70;99.90;;;;;;6249672;23;20024;-94
2021/03/06 19:01:37;;;;;;;1999.90;999.90;;;4.60;99.90;;;;;;6250294;23;20428;-95
2021/03/06 19:04:05;;;;;;;1999.90;999.90;;;4.60;99.90;;;;;;6249157;23;20027;-94
2021/03/06 19:06:43;;;;;;;1999.90;999.90;;;4.50;99.90;;;;;;6257892;23;20008;-96
2021/03/06 19:10:05;;;;;;;1999.90;999.90;;;4.50;99.90;;;;;;6268644;23;20024;-96
2021/03/06 19:13:19;;;;;;;1999.90;999.90;;;4.40;99.90;;;;;;6235058;23;20036;-96
2021/03/06 19:16:08;;;;;;;1999.90;999.90;;;4.40;99.90;;;;;;6241962;23;20024;-96
2021/03/06 19:25:28;;;;;;;1999.90;999.90;;;4.30;99.90;;;;;;6227518;23;20055;-93
2021/03/06 19:28:03;;;;;;;1999.90;999.90;;;4.20;99.90;;;;;;6221568;23;20028;-96
2021/03/06 19:30:47;;;;;;;1999.90;999.90;;;4.10;99.90;;;;;;6232918;23;20024;-96
2021/03/06 19:33:17;;;;;;;1999.90;999.90;;;4.10;99.90;;;;;;6220557;23;20440;-93
2021/03/06 19:36:16;;;;;;;1999.90;999.90;;;4.00;99.90;;;;;;6225873;23;20447;-96
2021/03/06 19:52:35;;;;;;;1999.90;999.90;;;3.70;99.90;;;;;;6192904;23;20083;-93
2021/03/06 19:55:51;;;;;;;1999.90;999.90;;;3.70;99.90;;;;;;6218233;23;20079;-94
2021/03/06 19:58:35;;;;;;;1999.90;999.90;;;3.60;99.90;;;;;;6209595;23;20027;-94
2021/03/06 20:01:08;;;;;;;1999.90;999.90;;;3.50;99.90;;;;;;6218516;23;20096;-94
2021/03/06 20:03:38;;;;;;;1999.90;999.90;;;3.50;99.90;;;;;;6218600;23;20021;-92
2021/03/06 20:09:05;;;;;;;1999.90;999.90;;;3.40;99.90;;;;;;6217555;23;20032;-91
2021/03/06 20:11:32;;;;;;;1999.90;999.90;;;3.30;99.90;;;;;;6218721;23;20075;-92
2021/03/06 20:14:01;;;;;;;1999.90;999.90;;;3.30;99.90;;;;;;6218568;23;20428;-92
2021/03/06 20:16:37;;;;;;;1999.90;999.90;;;3.30;99.90;;;;;;6219698;23;20021;-93
2021/03/06 20:19:08;;;;;;;1999.90;999.90;;;3.20;99.90;;;;;;6219105;23;20114;-92
2021/03/06 20:21:35;;;;;;;1999.90;999.90;;;3.20;99.90;;;;;;6218454;23;20103;-92
2021/03/06 20:27:03;;;;;;;1999.90;999.90;;;3.20;99.90;;;;;;6214031;23;20032;-91
2021/03/06 20:29:32;;;;;;;1999.90;999.90;;;3.10;99.90;;;;;;6218444;23;20029;-91
2021/03/06 20:32:00;;;;;;;1999.90;999.90;;;3.10;99.90;;;;;;6218027;23;20503;-92
2021/03/06 20:34:30;;;;;;;1999.90;999.90;;;3.10;99.90;;;;;;6217934;23;20024;-92
2021/03/06 20:37:01;;;;;;;1999.90;999.90;;;3.00;99.90;;;;;;6217701;23;20372;-93
2021/03/06 20:39:31;;;;;;;1999.90;999.90;;;3.00;99.90;;;;;;6218030;23;20027;-91
2021/03/06 20:41:59;;;;;;;1999.90;999.90;;;3.10;99.90;;;;;;6217337;23;20025;-92
2021/03/06 20:44:26;;;;;;;1999.90;999.90;;;3.00;99.90;;;;;;6218647;23;20090;-93
2021/03/06 20:46:56;;;;;;;1999.90;999.90;;;3.00;99.90;;;;;;6218171;23;20025;-92
2021/03/06 20:49:24;;;;;;;1999.90;999.90;;;3.00;99.90;;;;;;6217998;23;20024;-92
2021/03/06 20:51:52;;;;;;;1999.90;999.90;;;2.90;99.90;;;;;;6217754;23;20024;-92
2021/03/06 20:54:19;;;;;;;1999.90;999.90;;;3.00;99.90;;;;;;6218049;23;20059;-93
2021/03/06 20:56:53;;;;;;;1999.90;999.90;;;3.00;99.90;;;;;;6218349;23;20024;-93
2021/03/06 20:59:22;;;;;;;1999.90;999.90;;;2.90;99.90;;;;;;6218297;23;20031;-93
2021/03/06 21:01:51;;;;;;;1999.90;999.90;;;2.90;99.90;;;;;;6220584;23;20027;-93
2021/03/06 21:04:20;;;;;;;1999.90;999.90;;;2.90;99.90;;;;;;6221459;23;20032;-93
2021/03/06 21:06:47;;;;;;;1999.90;999.90;;;2.90;99.90;;;;;;6221825;23;20024;-92
2021/03/06 21:09:14;;;;;;;1999.90;999.90;;;2.90;99.90;;;;;;6222141;23;20025;-92
2021/03/06 21:11:44;;;;;;;1999.90;999.90;;;2.80;99.90;;;;;;6222082;23;20024;-92
2021/03/06 21:14:16;;;;;;;1999.90;999.90;;;2.80;99.90;;;;;;6221223;23;20433;-94
2021/03/06 21:16:43;;;;;;;1999.90;999.90;;;2.80;99.90;;;;;;6220069;23;20021;-93
2021/03/06 21:19:11;;;;;;;1999.90;999.90;;;2.80;99.90;;;;;;6220381;23;20025;-92
2021/03/06 21:21:40;;;;;;;1999.90;999.90;;;2.70;99.90;;;;;;6220774;23;20021;-92
2021/03/06 21:24:08;;;;;;;1999.90;999.90;;;2.70;99.90;;;;;;6220258;23;20459;-92
2021/03/06 21:26:35;;;;;;;1999.90;999.90;;;2.70;99.90;;;;;;6217855;23;20027;-92
2021/03/06 21:29:03;;;;;;;1999.90;999.90;;;2.70;99.90;;;;;;6217840;23;20020;-92
2021/03/06 21:42:04;;;;;;;1999.90;999.90;;;2.60;99.90;;;;;;6206953;23;20063;-94
2021/03/06 21:44:38;;;;;;;1999.90;999.90;;;2.60;99.90;;;;;;6218659;23;20032;-93
2021/03/06 21:47:06;;;;;;;1999.90;999.90;;;2.50;99.90;;;;;;6217414;23;20087;-93
2021/03/06 21:49:43;;;;;;;1999.90;999.90;;;2.50;99.90;;;;;;6218998;23;20052;-93
2021/03/06 21:52:13;;;;;;;1999.90;999.90;;;2.50;99.90;;;;;;6217589;23;20063;-94
2021/03/06 21:54:44;;;;;;;1999.90;999.90;;;2.40;99.90;;;;;;6218531;23;20025;-94
2021/03/06 21:57:12;;;;;;;1999.90;999.90;;;2.40;99.90;;;;;;6221322;23;20029;-96
2021/03/06 21:59:52;;;;;;;1999.90;999.90;;;2.40;99.90;;;;;;6226157;23;20039;-94
2021/03/06 22:03:04;;;;;;;1999.90;999.90;;;2.40;99.90;;;;;;6220137;23;20017;-94
2021/03/06 22:06:04;;;;;;;1999.90;999.90;;;2.40;99.90;;;;;;6205320;23;20029;-93
2021/03/06 22:08:42;;;;;;;1999.90;999.90;;;2.30;99.90;;;;;;6221728;23;20031;-94
2021/03/06 22:11:11;;;;;;;1999.90;999.90;;;2.30;99.90;;;;;;6220121;23;20084;-94
2021/03/06 22:14:15;;;;;;;1999.90;999.90;;;2.20;99.90;;;;;;6225872;23;20474;-95
2021/03/06 22:17:08;;;;;;;1999.90;999.90;;;2.20;99.90;;;;;;6225948;23;20025;-96
2021/03/06 22:20:10;;;;;;;1999.90;999.90;;;2.20;99.90;;;;;;6221963;23;20025;-96
2021/03/06 22:22:48;;;;;;;1999.90;999.90;;;2.10;99.90;;;;;;6224437;23;20044;-95
2021/03/06 22:25:16;;;;;;;1999.90;999.90;;;2.10;99.90;;;;;;6223293;23;20432;-96
2021/03/06 22:27:59;;;;;;;1999.90;999.90;;;2.10;99.90;;;;;;6225664;23;20103;-96
2021/03/06 22:35:03;;;;;;;1999.90;999.90;;;2.00;99.90;;;;;;6163996;23;20028;-96
2021/03/06 22:37:33;;;;;;;1999.90;999.90;;;1.90;99.90;;;;;;6162602;23;20029;-95
2021/03/06 22:40:34;;;;;;;1999.90;999.90;;;1.90;99.90;;;;;;6213453;23;20028;-95
2021/03/06 22:43:14;;;;;;;1999.90;999.90;;;1.90;99.90;;;;;;6222934;23;20047;-95
2021/03/06 22:45:59;;;;;;;1999.90;999.90;;;1.90;99.90;;;;;;6222392;23;20036;-94
2021/03/06 22:51:29;;;;;;;1999.90;999.90;;;1.80;99.90;;;;;;6217235;23;20021;-96
2021/03/06 22:54:20;;;;;;;1999.90;999.90;;;1.70;99.90;;;;;;6226621;23;20025;-96
2021/03/06 22:57:24;;;;;;;1999.90;999.90;;;1.70;99.90;;;;;;6226658;23;20068;-96
2021/03/06 23:00:42;;;;;;;1999.90;999.90;;;1.70;99.90;;;;;;6225500;23;20025;-94
2021/03/06 23:03:41;;;;;;;;;;;;;;;;;;;;;
2021/03/06 23:06:43;;;;;;;1999.90;999.90;;;1.60;99.90;;;;;;6228259;23;20020;-95
2021/03/06 23:09:27;;;;;;;1999.90;999.90;;;1.60;99.90;;;;;;6228223;23;20480;-95
2021/03/06 23:14:48;;;;;;;1999.90;999.90;;;1.50;99.90;;;;;;6223681;23;20029;-94
2021/03/06 23:17:27;;;;;;;1999.90;999.90;;;1.50;99.90;;;;;;6222914;23;20085;-94
2021/03/06 23:20:39;;;;;;;1999.90;999.90;;;1.50;99.90;;;;;;6218519;23;20095;-95
2021/03/06 23:23:20;;;;;;;1999.90;999.90;;;1.40;99.90;;;;;;6223261;23;20024;-94
2021/03/06 23:25:53;;;;;;;1999.90;999.90;;;1.40;99.90;;;;;;6223005;23;20044;-93
2021/03/06 23:28:26;;;;;;;1999.90;999.90;;;1.40;99.90;;;;;;6219738;23;20024;-94
2021/03/06 23:30:53;;;;;;;1999.90;999.90;;;1.30;99.90;;;;;;6219861;23;20399;-94
2021/03/06 23:33:24;;;;;;;1999.90;999.90;;;1.30;99.90;;;;;;6220336;23;20043;-96
2021/03/06 23:36:09;;;;;;;1999.90;999.90;;;1.20;99.90;;;;;;6220378;23;20024;-94
2021/03/06 23:38:44;;;;;;;1999.90;999.90;;;1.20;99.90;;;;;;6220399;23;20047;-94
2021/03/06 23:44:12;;;;;;;1999.90;999.90;;;1.20;99.90;;;;;;6221609;23;20020;-93
2021/03/06 23:47:04;;;;;;;1999.90;999.90;;;1.20;99.90;;;;;;6223789;23;20048;-94
2021/03/06 23:52:45;;;;;;;1999.90;999.90;;;1.10;99.90;;;;;;6223461;23;20028;-95
2021/03/06 23:55:22;;;;;;;1999.90;999.90;;;1.10;99.90;;;;;;6223193;23;20046;-95
2021/03/06 23:57:50;;;;;;;1999.90;999.90;;;1.00;99.90;;;;;;6221245;23;20095;-94
